Time;durP1;ratioP1;P1;durP2;ratioP2;P2;SDS_P1;SDS_P2;PMS_P1;PMS_P2;Temp;Humidity;BMP_temperature;BMP_pressure;BME280_temperature;BME280_humidity;BME280_pressure;Samples;Min_cycle;Max_cycle;Signal;HPM_P1;HPM_P2
2022/11/25 00:01:52;;;;;;;7.78;2.95;;;10.10;99.90;;;;;;4932743;29;20059;-76
2022/11/25 00:04:18;;;;;;;6.45;2.78;;;10.10;99.90;;;;;;4932445;29;20031;-76
2022/11/25 00:06:44;;;;;;;8.57;3.20;;;10.20;99.90;;;;;;4949904;29;20027;-75
2022/11/25 00:09:11;;;;;;;7.95;3.13;;;10.20;99.90;;;;;;4931871;29;20027;-75
2022/11/25 00:11:41;;;;;;;12.98;2.83;;;10.20;99.90;;;;;;4932532;29;20051;-75
2022/11/25 00:14:11;;;;;;;4.28;2.75;;;10.10;99.90;;;;;;4949628;29;20042;-75
2022/11/25 00:16:37;;;;;;;4.85;1.95;;;10.20;99.90;;;;;;4932729;29;20055;-76
2022/11/25 00:19:03;;;;;;;8.27;3.75;;;10.10;99.90;;;;;;4949663;29;20087;-75
2022/11/25 00:21:32;;;;;;;8.80;2.70;;;10.20;99.90;;;;;;4949735;29;20032;-76
2022/11/25 00:24:00;;;;;;;6.32;3.20;;;10.20;99.90;;;;;;4932588;29;20040;-76
2022/11/25 00:26:28;;;;;;;9.65;4.93;;;10.20;99.90;;;;;;4949639;29;20051;-76
2022/11/25 00:28:58;;;;;;;6.07;2.60;;;10.20;99.90;;;;;;4932205;29;20035;-76
2022/11/25 00:31:26;;;;;;;8.85;2.80;;;10.20;99.90;;;;;;4932303;29;20024;-76
2022/11/25 00:33:53;;;;;;;6.72;4.35;;;10.20;99.90;;;;;;4949423;29;20035;-76
2022/11/25 00:36:20;;;;;;;7.05;3.60;;;10.30;99.90;;;;;;4949216;29;20116;-76
2022/11/25 00:38:52;;;;;;;6.20;2.63;;;10.20;99.90;;;;;;4932391;29;20027;-75
2022/11/25 00:46:49;;;;;;;5.18;3.35;;;10.30;99.90;;;;;;4949391;29;20099;-75
2022/11/25 00:49:15;;;;;;;6.07;3.10;;;10.30;99.90;;;;;;4932050;29;20027;-76
2022/11/25 00:51:41;;;;;;;9.65;3.70;;;10.30;99.90;;;;;;4931861;29;20019;-75
2022/11/25 00:54:07;;;;;;;3.25;2.75;;;10.30;99.90;;;;;;4915993;29;20508;-76
2022/11/25 00:56:33;;;;;;;10.40;3.58;;;10.40;99.90;;;;;;4931769;29;20032;-76
2022/11/25 00:58:59;;;;;;;6.38;2.65;;;10.40;99.90;;;;;;4931829;29;20074;-76
2022/11/25 01:01:25;;;;;;;7.57;2.17;;;10.40;99.90;;;;;;4931617;29;20039;-76
2022/11/25 01:03:52;;;;;;;11.02;3.88;;;10.50;99.90;;;;;;4931604;29;20031;-76
2022/11/25 01:06:18;;;;;;;11.48;3.13;;;10.50;99.90;;;;;;4948986;29;20038;-76
2022/11/25 01:08:45;;;;;;;6.00;3.47;;;10.60;99.90;;;;;;4931548;29;20035;-75
2022/11/25 01:11:13;;;;;;;7.53;2.67;;;10.60;99.90;;;;;;4931245;29;20015;-76
2022/11/25 01:13:39;;;;;;;9.57;3.15;;;10.60;99.90;;;;;;4931911;29;20046;-75
2022/11/25 01:16:07;;;;;;;5.55;3.75;;;10.70;99.90;;;;;;4915769;29;20032;-75
2022/11/25 01:18:34;;;;;;;3.28;1.90;;;10.70;99.90;;;;;;4931385;29;20020;-75
2022/11/25 01:21:06;;;;;;;14.80;4.35;;;10.70;99.90;;;;;;4948435;29;20032;-75
2022/11/25 01:23:32;;;;;;;13.13;2.75;;;10.60;99.90;;;;;;4931506;29;20039;-75
2022/11/25 01:26:03;;;;;;;4.57;3.28;;;10.60;99.90;;;;;;4931391;29;20024;-75
2022/11/25 01:28:30;;;;;;;6.10;2.40;;;10.60;99.90;;;;;;4948599;29;20181;-76
2022/11/25 01:31:00;;;;;;;12.98;3.75;;;10.60;99.90;;;;;;4948578;29;20481;-76
2022/11/25 01:33:26;;;;;;;3.00;2.35;;;10.60;99.90;;;;;;4948370;29;20035;-75
2022/11/25 01:35:52;;;;;;;7.25;2.45;;;10.60;99.90;;;;;;4931354;29;20024;-75
2022/11/25 01:38:18;;;;;;;4.75;1.63;;;10.60;99.90;;;;;;4948553;29;20131;-75
2022/11/25 01:40:44;;;;;;;6.13;3.17;;;10.50;99.90;;;;;;4947745;29;20055;-76
2022/11/25 01:43:13;;;;;;;9.15;3.97;;;10.50;99.90;;;;;;4930969;29;20032;-76
2022/11/25 01:45:39;;;;;;;8.10;2.83;;;10.60;99.90;;;;;;4915701;29;20485;-76
2022/11/25 01:48:21;;;;;;;3.58;1.75;;;10.60;99.90;;;;;;4948223;29;20036;-76
2022/11/25 01:50:49;;;;;;;11.65;4.18;;;10.60;99.90;;;;;;4948342;29;20038;-75
2022/11/25 01:53:17;;;;;;;4.13;2.67;;;10.60;99.90;;;;;;4948181;29;20103;-76
2022/11/25 01:55:49;;;;;;;11.73;2.90;;;10.60;99.90;;;;;;4930948;29;20098;-75
2022/11/25 01:58:20;;;;;;;6.95;3.05;;;10.60;99.90;;;;;;4915320;29;20028;-76
2022/11/25 02:00:50;;;;;;;3.10;1.73;;;10.60;99.90;;;;;;4930962;29;20031;-76
2022/11/25 02:03:33;;;;;;;9.10;3.28;;;10.60;99.90;;;;;;4931017;29;20031;-75
2022/11/25 02:06:12;;;;;;;10.77;3.22;;;10.60;99.90;;;;;;4931070;29;20027;-75
2022/11/25 02:08:39;;;;;;;9.25;3.22;;;10.60;99.90;;;;;;4931029;29;20083;-75
2022/11/25 02:11:05;;;;;;;10.38;3.65;;;10.60;99.90;;;;;;4947852;29;20026;-75
2022/11/25 02:13:32;;;;;;;5.43;2.35;;;10.60;99.90;;;;;;4930933;29;20047;-75
2022/11/25 02:15:59;;;;;;;3.97;1.80;;;10.60;99.90;;;;;;4948123;29;20083;-75
2022/11/25 02:18:26;;;;;;;9.00;3.53;;;10.50;99.90;;;;;;4930975;29;20052;-75
2022/11/25 02:20:52;;;;;;;11.50;1.98;;;10.40;99.90;;;;;;4930734;29;20035;-76
2022/11/25 02:23:29;;;;;;;11.43;3.85;;;10.30;99.90;;;;;;4931001;29;20038;-76
2022/11/25 02:25:58;;;;;;;15.73;3.38;;;10.30;99.90;;;;;;4930534;29;20024;-76
2022/11/25 02:28:28;;;;;;;7.38;2.30;;;10.20;99.90;;;;;;4930872;29;20031;-75
2022/11/25 02:30:54;;;;;;;6.40;2.08;;;10.10;99.90;;;;;;4930576;29;20055;-76
2022/11/25 02:33:22;;;;;;;7.40;2.33;;;10.10;99.90;;;;;;4933359;29;20028;-76
2022/11/25 02:35:57;;;;;;;7.50;2.53;;;10.00;99.90;;;;;;4934321;29;20023;-75
2022/11/25 02:38:38;;;;;;;7.05;4.95;;;10.00;99.90;;;;;;4934081;29;20024;-77
2022/11/25 02:41:12;;;;;;;10.85;3.70;;;9.90;99.90;;;;;;4934023;29;20083;-76
2022/11/25 02:43:39;;;;;;;6.60;2.30;;;9.90;99.90;;;;;;4933834;29;20060;-76
2022/11/25 02:46:11;;;;;;;4.45;2.58;;;9.80;99.90;;;;;;4934416;29;20032;-76
2022/11/25 02:48:38;;;;;;;14.57;3.17;;;9.80;99.90;;;;;;4934246;29;20470;-76
2022/11/25 02:51:08;;;;;;;13.67;2.77;;;9.80;99.90;;;;;;4933590;29;20031;-76
2022/11/25 02:53:34;;;;;;;8.52;2.90;;;9.80;99.90;;;;;;4933885;29;20103;-76
2022/11/25 02:56:00;;;;;;;3.47;1.02;;;9.70;99.90;;;;;;4934021;29;20051;-75
2022/11/25 02:58:26;;;;;;;6.38;2.10;;;9.70;99.90;;;;;;4934008;29;20060;-76
2022/11/25 03:00:52;;;;;;;8.85;3.08;;;9.60;99.90;;;;;;4918525;29;20060;-76
2022/11/25 03:03:19;;;;;;;11.07;3.35;;;9.60;99.90;;;;;;4950961;29;20028;-76
2022/11/25 03:05:46;;;;;;;8.13;2.65;;;9.60;99.90;;;;;;4933834;29;20035;-76
2022/11/25 03:08:12;;;;;;;5.22;1.48;;;9.50;99.90;;;;;;4933669;29;20027;-76
2022/11/25 03:10:39;;;;;;;10.35;1.88;;;9.50;99.90;;;;;;4933980;29;20016;-76
2022/11/25 03:13:06;;;;;;;6.68;2.05;;;9.50;99.90;;;;;;4933920;29;20031;-76
2022/11/25 03:15:33;;;;;;;4.70;1.15;;;9.50;99.90;;;;;;4934015;29;20032;-76
2022/11/25 03:18:00;;;;;;;4.10;2.25;;;9.50;99.90;;;;;;4933693;29;20031;-76
2022/11/25 03:20:27;;;;;;;6.78;2.70;;;9.40;99.90;;;;;;4918066;29;20108;-76
2022/11/25 03:22:53;;;;;;;10.45;2.53;;;9.40;99.90;;;;;;4950536;29;20104;-76
2022/11/25 03:25:18;;;;;;;6.18;2.60;;;9.40;99.90;;;;;;4950674;29;20028;-76
2022/11/25 03:27:46;;;;;;;3.45;1.58;;;9.30;99.90;;;;;;4918151;29;20051;-76
2022/11/25 03:30:16;;;;;;;4.00;2.13;;;9.30;99.90;;;;;;4933673;29;20020;-76
2022/11/25 03:32:43;;;;;;;2.55;1.67;;;9.20;99.90;;;;;;4933695;29;20032;-76
2022/11/25 03:35:11;;;;;;;1.83;1.65;;;9.10;99.90;;;;;;4933530;29;20034;-76
2022/11/25 03:37:37;;;;;;;3.70;1.60;;;9.10;99.90;;;;;;4917533;29;20027;-76
2022/11/25 03:40:07;;;;;;;4.80;3.10;;;9.00;99.90;;;;;;4943075;29;20080;-76
2022/11/25 03:42:33;;;;;;;7.55;1.23;;;9.00;99.90;;;;;;4933529;29;20548;-76
2022/11/25 03:45:00;;;;;;;6.10;2.85;;;8.90;99.90;;;;;;4948074;29;20113;-76
2022/11/25 03:47:26;;;;;;;4.63;3.08;;;8.90;99.90;;;;;;4949236;29;20043;-76
2022/11/25 03:49:52;;;;;;;1.88;1.63;;;8.90;99.90;;;;;;4933213;29;20028;-76
2022/11/25 03:52:18;;;;;;;5.85;2.13;;;8.90;99.90;;;;;;4937937;29;20027;-75
2022/11/25 03:54:44;;;;;;;1.70;1.05;;;8.90;99.90;;;;;;4933231;29;20523;-76
2022/11/25 03:57:15;;;;;;;8.13;2.42;;;8.90;99.90;;;;;;4933089;29;20036;-76
2022/11/25 03:59:41;;;;;;;5.93;2.42;;;8.90;99.90;;;;;;4933084;29;20043;-76
2022/11/25 04:02:07;;;;;;;4.28;2.33;;;8.90;99.90;;;;;;4932998;29;20043;-76
2022/11/25 04:04:34;;;;;;;4.68;1.67;;;8.90;99.90;;;;;;4932758;29;20035;-76
2022/11/25 04:07:00;;;;;;;3.47;1.25;;;8.80;99.90;;;;;;4932579;29;20052;-76
2022/11/25 04:09:26;;;;;;;3.55;1.42;;;8.90;99.90;;;;;;4932886;29;20043;-77
2022/11/25 04:14:51;;;;;;;3.40;2.50;;;8.90;99.90;;;;;;4932703;29;20047;-76
2022/11/25 04:17:17;;;;;;;2.92;1.17;;;8.90;99.90;;;;;;4932793;29;20028;-76
2022/11/25 04:19:44;;;;;;;4.03;1.48;;;8.90;99.90;;;;;;4932645;29;20497;-76
2022/11/25 04:22:11;;;;;;;3.15;1.60;;;8.90;99.90;;;;;;4932097;29;20043;-76
2022/11/25 04:24:39;;;;;;;2.83;2.25;;;8.90;99.90;;;;;;4931978;29;20027;-76
2022/11/25 04:27:06;;;;;;;4.13;2.13;;;8.80;99.90;;;;;;4932490;29;20032;-76
2022/11/25 04:29:32;;;;;;;5.30;0.90;;;8.80;99.90;;;;;;4932429;29;20027;-76
2022/11/25 04:32:01;;;;;;;3.92;2.05;;;8.80;99.90;;;;;;4932314;29;20076;-76
2022/11/25 04:34:27;;;;;;;4.50;2.17;;;8.80;99.90;;;;;;4932549;29;20032;-76
2022/11/25 04:36:53;;;;;;;4.32;1.08;;;8.80;99.90;;;;;;4932017;29;20032;-76
2022/11/25 04:39:19;;;;;;;9.48;1.55;;;8.90;99.90;;;;;;4931890;29;20043;-76
2022/11/25 04:42:30;;;;;;;0.85;0.50;;;8.80;99.90;;;;;;4932926;29;20035;-76
2022/11/25 04:44:35;;;;;;;3.42;1.10;;;8.80;99.90;;;;;;4931916;29;20044;-76
2022/11/25 04:47:01;;;;;;;2.90;0.40;;;8.80;99.90;;;;;;4932315;29;20402;-76
2022/11/25 04:49:27;;;;;;;1.88;1.77;;;8.70;99.90;;;;;;4931814;29;20038;-76
2022/11/25 04:51:53;;;;;;;2.38;1.98;;;8.60;99.90;;;;;;4930931;29;20024;-76
2022/11/25 04:54:20;;;;;;;2.75;1.70;;;8.60;99.90;;;;;;4932038;29;20051;-76
2022/11/25 04:56:47;;;;;;;1.55;1.20;;;8.60;99.90;;;;;;4931740;29;20031;-77
2022/11/25 05:01:57;;;;;;;5.85;1.10;;;8.40;99.90;;;;;;4917942;29;20036;-76
2022/11/25 05:04:31;;;;;;;0.77;0.70;;;8.30;99.90;;;;;;4931568;29;20087;-76
2022/11/25 05:06:57;;;;;;;2.30;1.25;;;8.20;99.90;;;;;;4915330;29;20063;-76
2022/11/25 05:09:25;;;;;;;5.18;1.20;;;8.20;99.90;;;;;;4930823;29;20020;-76
2022/11/25 05:12:02;;;;;;;2.78;0.93;;;8.10;99.90;;;;;;4931205;29;20042;-75
2022/11/25 05:14:27;;;;;;;0.88;0.82;;;8.00;99.90;;;;;;4931419;29;20059;-75
2022/11/25 05:16:53;;;;;;;3.83;1.33;;;8.00;99.90;;;;;;4931970;29;20036;-76
2022/11/25 05:19:20;;;;;;;1.67;1.05;;;7.90;99.90;;;;;;4930987;29;20034;-75
2022/11/25 05:21:46;;;;;;;3.10;1.73;;;7.90;99.90;;;;;;4931609;29;20063;-75
2022/11/25 05:24:12;;;;;;;2.75;1.05;;;7.90;99.90;;;;;;4930833;29;20050;-76
2022/11/25 05:26:38;;;;;;;0.95;0.95;;;7.90;99.90;;;;;;4931098;29;20035;-75
2022/11/25 05:29:04;;;;;;;6.05;1.67;;;8.00;99.90;;;;;;4931438;29;20079;-76
2022/11/25 05:31:32;;;;;;;2.78;0.88;;;8.00;99.90;;;;;;4915736;29;20035;-75
2022/11/25 05:34:01;;;;;;;4.32;0.90;;;7.90;99.90;;;;;;4929541;29;20027;-76
2022/11/25 05:36:28;;;;;;;5.88;1.67;;;8.00;99.90;;;;;;4920835;29;20040;-75
2022/11/25 05:38:58;;;;;;;6.88;2.10;;;7.90;99.90;;;;;;4942834;29;20062;-75
2022/11/25 05:41:37;;;;;;;2.47;2.05;;;7.80;99.90;;;;;;4930264;29;20082;-75
2022/11/25 05:44:04;;;;;;;3.08;1.42;;;7.70;99.90;;;;;;4929773;29;20035;-75
2022/11/25 05:46:30;;;;;;;3.15;2.90;;;7.70;99.90;;;;;;4930044;29;20038;-75
2022/11/25 05:48:58;;;;;;;7.97;2.58;;;7.70;99.90;;;;;;4946034;29;20086;-75
2022/11/25 05:51:25;;;;;;;4.50;2.20;;;7.70;99.90;;;;;;4933452;29;20032;-75
2022/11/25 05:53:53;;;;;;;4.20;1.77;;;7.70;99.90;;;;;;4930644;29;20024;-75
2022/11/25 05:56:21;;;;;;;7.22;3.75;;;7.70;99.90;;;;;;4930691;29;20031;-75
2022/11/25 05:58:50;;;;;;;4.82;2.35;;;7.60;99.90;;;;;;4947745;29;20102;-76
2022/11/25 06:01:17;;;;;;;5.13;2.90;;;7.50;99.90;;;;;;4914825;29;20024;-75
2022/11/25 06:03:45;;;;;;;3.35;3.05;;;7.60;99.90;;;;;;4929923;29;20056;-76
2022/11/25 06:06:12;;;;;;;7.90;4.40;;;7.60;99.90;;;;;;4929833;29;20047;-76
2022/11/25 06:08:39;;;;;;;4.68;4.03;;;7.60;99.90;;;;;;4933088;29;20042;-75
2022/11/25 06:11:10;;;;;;;10.85;3.00;;;7.60;99.90;;;;;;4934650;29;20477;-75
2022/11/25 06:13:38;;;;;;;3.22;2.92;;;7.50;99.90;;;;;;4933525;29;20051;-76
2022/11/25 06:16:16;;;;;;;3.40;1.98;;;7.50;99.90;;;;;;4919609;29;20032;-75
2022/11/25 06:18:44;;;;;;;5.82;2.70;;;7.50;99.90;;;;;;4934458;29;20028;-75
2022/11/25 06:21:12;;;;;;;9.02;3.05;;;7.50;99.90;;;;;;4918571;29;20039;-75
2022/11/25 06:23:38;;;;;;;6.95;2.15;;;7.40;99.90;;;;;;4909911;29;20047;-76
2022/11/25 06:26:08;;;;;;;8.60;3.20;;;7.50;99.90;;;;;;4932091;29;20055;-75
2022/11/25 06:28:35;;;;;;;7.85;3.55;;;7.50;99.90;;;;;;4934163;29;20052;-75
2022/11/25 06:31:10;;;;;;;5.45;3.38;;;7.50;99.90;;;;;;4934043;29;20036;-76
2022/11/25 06:33:45;;;;;;;6.03;2.30;;;7.50;99.90;;;;;;4909980;29;20119;-76
2022/11/25 06:36:15;;;;;;;3.60;2.40;;;7.50;99.90;;;;;;4934159;29;20038;-76
2022/11/25 06:38:46;;;;;;;9.43;3.47;;;7.50;99.90;;;;;;4951034;29;20490;-75
2022/11/25 06:41:12;;;;;;;5.15;3.47;;;7.40;99.90;;;;;;4923002;29;20048;-76
2022/11/25 06:43:39;;;;;;;12.98;9.32;;;7.40;99.90;;;;;;4934235;29;20115;-76
2022/11/25 06:46:07;;;;;;;59.97;40.42;;;7.30;99.90;;;;;;4951313;29;20028;-75
2022/11/25 06:48:33;;;;;;;35.45;17.90;;;7.30;99.90;;;;;;4951249;29;20039;-76
2022/11/25 06:51:02;;;;;;;29.17;17.02;;;7.30;99.90;;;;;;4952356;29;20063;-75
2022/11/25 06:53:28;;;;;;;13.60;9.60;;;7.30;99.90;;;;;;4934211;29;20027;-76
2022/11/25 06:56:08;;;;;;;19.05;14.48;;;7.30;99.90;;;;;;4950919;29;20445;-75
2022/11/25 06:58:35;;;;;;;7.72;4.05;;;7.20;99.90;;;;;;4951263;29;20389;-75
2022/11/25 07:01:11;;;;;;;6.93;6.22;;;7.20;99.90;;;;;;4954424;29;20054;-75
2022/11/25 07:03:37;;;;;;;7.20;4.57;;;7.20;99.90;;;;;;4970316;29;20035;-75
2022/11/25 07:06:04;;;;;;;5.22;4.22;;;7.10;99.90;;;;;;4970205;29;20035;-75
2022/11/25 07:08:30;;;;;;;8.55;3.90;;;7.20;99.90;;;;;;4952955;29;20032;-75
2022/11/25 07:11:03;;;;;;;4.80;3.10;;;7.20;99.90;;;;;;4970121;29;20034;-75
2022/11/25 07:13:28;;;;;;;6.85;2.72;;;7.10;99.90;;;;;;4952802;29;20135;-75
2022/11/25 07:15:54;;;;;;;9.73;2.95;;;7.10;99.90;;;;;;4969932;29;20062;-75
2022/11/25 07:18:20;;;;;;;7.20;2.80;;;7.20;99.90;;;;;;4955788;29;20059;-75
2022/11/25 07:20:46;;;;;;;3.50;3.00;;;7.10;99.90;;;;;;4950736;29;20088;-75
2022/11/25 07:23:12;;;;;;;4.63;3.40;;;7.10;99.90;;;;;;4950542;29;20036;-75
2022/11/25 07:25:37;;;;;;;5.85;4.40;;;7.20;99.90;;;;;;4950789;29;20079;-75
2022/11/25 07:28:03;;;;;;;9.35;3.75;;;7.20;99.90;;;;;;4950520;29;20500;-75
2022/11/25 07:30:29;;;;;;;9.57;4.70;;;7.30;99.90;;;;;;4950513;29;20062;-75
2022/11/25 07:32:55;;;;;;;12.25;7.85;;;7.30;99.90;;;;;;4950013;29;20054;-75
2022/11/25 07:35:21;;;;;;;22.70;6.65;;;7.40;99.90;;;;;;4949598;29;20032;-75
2022/11/25 07:37:46;;;;;;;17.90;12.85;;;7.40;99.90;;;;;;4950663;29;20075;-75
2022/11/25 07:40:12;;;;;;;10.85;4.57;;;7.40;99.90;;;;;;4956082;29;20051;-75
2022/11/25 07:42:38;;;;;;;12.98;6.43;;;7.50;99.90;;;;;;4935708;29;20043;-75
2022/11/25 07:45:08;;;;;;;10.60;4.45;;;7.50;99.90;;;;;;4945055;29;20031;-75
2022/11/25 07:47:43;;;;;;;14.45;5.60;;;7.50;99.90;;;;;;4938872;29;20051;-76
2022/11/25 07:50:10;;;;;;;14.88;4.72;;;7.70;99.90;;;;;;4932691;29;20031;-76
2022/11/25 07:52:39;;;;;;;8.43;5.30;;;7.70;99.90;;;;;;4934768;29;20031;-76
2022/11/25 07:55:05;;;;;;;8.80;4.10;;;7.80;99.90;;;;;;4950131;29;20036;-75
2022/11/25 07:57:31;;;;;;;7.18;3.85;;;7.80;99.90;;;;;;4934575;29;20393;-75
2022/11/25 07:59:57;;;;;;;12.98;4.47;;;8.20;99.90;;;;;;4932898;29;20043;-75
2022/11/25 08:02:23;;;;;;;4.95;2.50;;;9.30;99.90;;;;;;4950013;29;20041;-76
2022/11/25 08:04:49;;;;;;;4.90;2.63;;;10.60;99.90;;;;;;4949876;29;20118;-76
2022/11/25 08:07:14;;;;;;;18.48;8.40;;;11.70;99.90;;;;;;4949791;29;20063;-75
2022/11/25 08:09:40;;;;;;;9.32;5.93;;;12.70;99.90;;;;;;4950064;29;20493;-76
2022/11/25 08:12:06;;;;;;;7.38;5.63;;;12.70;99.90;;;;;;4931852;29;20066;-76
2022/11/25 08:14:33;;;;;;;6.38;3.08;;;13.60;99.90;;;;;;4949383;29;20036;-76
2022/11/25 08:16:59;;;;;;;8.25;2.33;;;14.30;99.90;;;;;;4949317;29;20038;-76
2022/11/25 08:19:24;;;;;;;5.80;3.90;;;15.00;99.90;;;;;;4949559;29;20079;-76
2022/11/25 08:21:51;;;;;;;3.97;1.73;;;15.70;99.90;;;;;;4932280;29;20051;-75
2022/11/25 08:24:19;;;;;;;5.97;1.70;;;16.20;99.90;;;;;;4949434;29;20039;-75
2022/11/25 08:26:45;;;;;;;6.50;2.90;;;16.30;99.90;;;;;;4932577;29;20039;-76
2022/11/25 08:29:17;;;;;;;6.75;3.80;;;16.50;99.90;;;;;;4949378;29;20043;-76
2022/11/25 08:31:43;;;;;;;12.63;3.20;;;16.90;99.90;;;;;;4932135;29;20028;-76
2022/11/25 08:34:16;;;;;;;4.05;3.22;;;17.10;99.90;;;;;;4948904;29;20052;-76
2022/11/25 08:36:41;;;;;;;7.75;2.42;;;17.50;99.90;;;;;;4932386;29;20501;-76
2022/11/25 08:39:08;;;;;;;9.98;3.35;;;17.70;99.90;;;;;;4948461;29;20035;-75
2022/11/25 08:41:36;;;;;;;7.30;2.30;;;17.70;99.90;;;;;;4949016;29;20450;-76
2022/11/25 08:44:04;;;;;;;4.97;2.83;;;18.00;99.90;;;;;;4949029;29;20040;-76
2022/11/25 08:46:34;;;;;;;9.40;3.03;;;18.20;99.90;;;;;;4949213;29;20032;-76
2022/11/25 08:49:01;;;;;;;6.43;2.13;;;18.50;99.90;;;;;;4949344;29;20059;-76
2022/11/25 08:51:29;;;;;;;6.35;2.63;;;18.60;99.90;;;;;;4931888;29;20032;-76
2022/11/25 08:53:56;;;;;;;7.07;2.30;;;18.90;99.90;;;;;;4949057;29;20062;-76
2022/11/25 08:56:23;;;;;;;6.93;2.22;;;18.70;99.90;;;;;;4931452;29;20046;-76
2022/11/25 08:58:49;;;;;;;4.78;2.78;;;18.90;99.90;;;;;;4948920;29;20111;-76
2022/11/25 09:01:17;;;;;;;4.10;2.35;;;18.00;99.90;;;;;;4931925;29;20035;-75
2022/11/25 09:03:47;;;;;;;4.60;2.45;;;17.80;99.90;;;;;;4948820;29;20036;-76
2022/11/25 09:06:13;;;;;;;6.27;2.33;;;17.30;99.90;;;;;;4948587;29;20115;-76
2022/11/25 09:08:40;;;;;;;2.38;1.65;;;16.70;99.90;;;;;;4931646;29;20023;-76
2022/11/25 09:11:07;;;;;;;4.82;2.70;;;17.10;99.90;;;;;;4948928;29;20091;-75
2022/11/25 09:13:34;;;;;;;2.13;1.58;;;16.70;99.90;;;;;;4948576;29;20035;-76
2022/11/25 09:16:02;;;;;;;4.15;3.75;;;17.10;99.90;;;;;;4931561;29;20062;-76
2022/11/25 09:18:30;;;;;;;4.35;2.33;;;17.30;99.90;;;;;;4948777;29;20031;-76
2022/11/25 09:20:57;;;;;;;6.30;3.08;;;17.90;99.90;;;;;;4931093;29;20066;-76
2022/11/25 09:23:24;;;;;;;7.50;3.85;;;18.00;99.90;;;;;;4948388;29;20036;-76
2022/11/25 09:25:53;;;;;;;5.65;3.30;;;18.00;99.90;;;;;;4948693;29;20024;-76
2022/11/25 09:28:20;;;;;;;9.80;5.13;;;18.60;99.90;;;;;;4948479;29;20028;-75
2022/11/25 09:30:46;;;;;;;7.85;2.80;;;19.30;99.90;;;;;;4948502;29;20042;-75
2022/11/25 09:33:11;;;;;;;7.75;3.30;;;19.20;99.90;;;;;;4948546;29;20043;-75
2022/11/25 09:35:37;;;;;;;6.38;2.55;;;19.30;99.90;;;;;;4948265;29;20036;-76
2022/11/25 09:38:03;;;;;;;7.50;2.50;;;20.60;99.90;;;;;;4948188;29;20037;-76
2022/11/25 09:41:14;;;;;;;2.15;1.98;;;20.40;99.90;;;;;;4948255;29;20047;-75
2022/11/25 09:46:50;;;;;;;7.40;2.58;;;21.30;99.90;;;;;;4948420;29;20060;-76
2022/11/25 09:49:43;;;;;;;9.00;3.90;;;19.90;99.90;;;;;;4948268;29;20099;-76
2022/11/25 09:52:18;;;;;;;13.73;4.30;;;20.10;99.90;;;;;;4947667;29;20031;-75
2022/11/25 09:54:52;;;;;;;7.15;3.83;;;20.80;99.90;;;;;;4948283;29;20063;-76
2022/11/25 09:57:28;;;;;;;6.38;2.92;;;20.20;99.90;;;;;;4948185;29;20119;-76
2022/11/25 10:00:10;;;;;;;2.90;1.90;;;20.10;99.90;;;;;;4948364;29;20114;-76
2022/11/25 10:03:13;;;;;;;1.98;1.77;;;20.20;99.90;;;;;;4932047;29;20095;-75
2022/11/25 10:06:25;;;;;;;5.20;3.20;;;20.00;99.90;;;;;;4925556;29;20111;-75
2022/11/25 10:09:00;;;;;;;5.95;2.38;;;20.30;99.90;;;;;;4933992;29;20043;-75
2022/11/25 10:11:32;;;;;;;4.57;2.55;;;20.60;99.90;;;;;;4948108;29;20024;-76
2022/11/25 10:14:09;;;;;;;4.82;2.70;;;21.10;99.90;;;;;;4948088;29;20027;-75
2022/11/25 10:16:44;;;;;;;6.72;2.45;;;21.20;99.90;;;;;;4947955;29;20390;-75
2022/11/25 10:19:18;;;;;;;8.75;3.40;;;20.90;99.90;;;;;;4948065;29;20044;-75
2022/11/25 10:21:45;;;;;;;3.72;1.88;;;20.70;99.90;;;;;;4915142;29;20039;-75
2022/11/25 10:24:16;;;;;;;5.50;2.17;;;20.00;99.90;;;;;;4947754;29;20035;-75
2022/11/25 10:26:52;;;;;;;5.75;1.88;;;20.40;99.90;;;;;;4930882;29;20032;-75
2022/11/25 10:29:36;;;;;;;5.75;2.00;;;20.40;99.90;;;;;;4947827;29;20028;-75
2022/11/25 10:32:24;;;;;;;7.03;2.47;;;20.90;99.90;;;;;;4947832;29;20032;-75
2022/11/25 10:35:00;;;;;;;6.63;3.10;;;20.60;99.90;;;;;;4930766;29;20027;-75
2022/11/25 10:37:39;;;;;;;8.75;2.55;;;20.00;99.90;;;;;;4947110;29;20032;-75
2022/11/25 10:40:09;;;;;;;8.57;2.35;;;20.50;99.90;;;;;;4947741;29;20058;-75
2022/11/25 10:42:35;;;;;;;8.75;2.78;;;20.10;99.90;;;;;;4940757;29;20035;-75
2022/11/25 10:45:07;;;;;;;5.00;2.90;;;20.50;99.90;;;;;;4930717;29;20046;-75
2022/11/25 10:47:37;;;;;;;6.55;1.90;;;19.80;99.90;;;;;;4930783;29;20024;-75
2022/11/25 10:50:03;;;;;;;7.57;2.95;;;18.70;99.90;;;;;;4947975;29;20032;-75
2022/11/25 10:52:36;;;;;;;30.50;20.65;;;18.70;99.90;;;;;;4947757;29;20514;-75
2022/11/25 10:55:18;;;;;;;7.55;4.57;;;18.30;99.90;;;;;;4933994;29;20031;-75
2022/11/25 10:57:44;;;;;;;5.43;3.17;;;17.90;99.90;;;;;;4950960;29;20059;-75
2022/11/25 11:00:28;;;;;;;5.93;3.90;;;18.20;99.90;;;;;;4951346;29;20040;-75
2022/11/25 11:02:56;;;;;;;7.00;2.97;;;18.10;99.90;;;;;;4951254;29;20390;-75
2022/11/25 11:05:32;;;;;;;5.00;2.75;;;18.20;99.90;;;;;;4950912;29;20048;-75
2022/11/25 11:08:17;;;;;;;18.23;3.05;;;17.50;99.90;;;;;;4951012;29;20051;-75
2022/11/25 11:10:44;;;;;;;6.00;3.65;;;17.30;99.90;;;;;;4933667;29;20099;-75
2022/11/25 11:13:31;;;;;;;4.47;2.63;;;17.50;99.90;;;;;;4950863;29;20115;-75
2022/11/25 11:15:58;;;;;;;7.63;2.55;;;17.00;99.90;;;;;;4933806;29;20035;-75
2022/11/25 11:18:45;;;;;;;4.78;2.10;;;17.00;99.90;;;;;;4886883;29;20035;-75
2022/11/25 11:21:21;;;;;;;6.45;1.85;;;17.10;99.90;;;;;;4933889;29;20046;-75
2022/11/25 11:23:51;;;;;;;4.47;2.50;;;16.80;99.90;;;;;;4950771;29;20027;-75
2022/11/25 11:26:34;;;;;;;4.40;2.17;;;16.60;99.90;;;;;;4950428;29;20040;-75
2022/11/25 11:29:15;;;;;;;6.22;2.97;;;16.60;99.90;;;;;;4950438;29;20024;-75
2022/11/25 11:31:47;;;;;;;4.55;2.35;;;16.50;99.90;;;;;;4933276;29;20070;-76
2022/11/25 11:34:19;;;;;;;10.70;5.63;;;16.30;99.90;;;;;;4950673;29;20091;-75
2022/11/25 11:36:45;;;;;;;39.80;27.33;;;16.10;99.90;;;;;;4933376;29;20038;-75
2022/11/25 11:39:32;;;;;;;25.30;11.07;;;16.00;99.90;;;;;;4950296;29;20059;-75
2022/11/25 11:41:58;;;;;;;23.50;14.88;;;16.00;99.90;;;;;;4950141;29;20023;-75
2022/11/25 11:44:42;;;;;;;40.33;25.33;;;16.10;99.90;;;;;;4950081;29;20392;-75
2022/11/25 11:47:36;;;;;;;23.02;12.75;;;16.10;99.90;;;;;;4950450;29;20027;-75
2022/11/25 11:50:08;;;;;;;17.70;10.25;;;15.70;99.90;;;;;;4933118;29;20028;-75
2022/11/25 11:52:37;;;;;;;3.90;2.85;;;15.50;99.90;;;;;;4950331;29;20031;-75
2022/11/25 11:55:16;;;;;;;10.25;3.42;;;15.50;99.90;;;;;;4950073;29;20034;-75
2022/11/25 11:58:02;;;;;;;3.30;2.20;;;15.70;99.90;;;;;;4950109;29;20038;-75
2022/11/25 12:00:35;;;;;;;5.57;2.15;;;15.70;99.90;;;;;;4932464;29;20039;-75
2022/11/25 12:03:22;;;;;;;4.75;2.65;;;15.70;99.90;;;;;;4949909;29;20039;-75
2022/11/25 12:05:54;;;;;;;4.45;2.00;;;15.50;99.90;;;;;;4948827;29;20032;-75
2022/11/25 12:08:25;;;;;;;5.25;4.72;;;15.70;99.90;;;;;;4949942;29;20042;-75
2022/11/25 12:11:03;;;;;;;3.42;1.73;;;15.90;99.90;;;;;;4949794;29;20070;-75
2022/11/25 12:13:49;;;;;;;5.30;2.35;;;15.80;99.90;;;;;;4949795;29;20367;-75
2022/11/25 12:16:26;;;;;;;4.25;1.60;;;15.70;99.90;;;;;;4949909;29;20031;-75
2022/11/25 12:19:14;;;;;;;3.65;1.77;;;15.70;99.90;;;;;;4932753;29;20040;-75
2022/11/25 12:21:47;;;;;;;2.03;1.63;;;15.70;99.90;;;;;;4936171;29;20051;-75
2022/11/25 12:24:23;;;;;;;3.25;1.65;;;15.90;99.90;;;;;;4949533;29;20031;-75
2022/11/25 12:27:09;;;;;;;3.38;1.70;;;16.00;99.90;;;;;;4949375;29;20028;-75
2022/11/25 12:29:45;;;;;;;1.77;1.42;;;15.90;99.90;;;;;;4949640;29;20046;-75
2022/11/25 12:32:33;;;;;;;9.27;1.38;;;15.50;99.90;;;;;;4932156;29;20110;-75
2022/11/25 12:35:17;;;;;;;4.57;2.00;;;15.50;99.90;;;;;;4949496;29;20043;-75
2022/11/25 12:38:07;;;;;;;7.03;1.48;;;15.50;99.90;;;;;;4949423;29;20035;-75
2022/11/25 12:40:33;;;;;;;;;;;15.10;99.90;;;;;;4949721;29;20532;-75
2022/11/25 12:43:14;;;;;;;3.00;1.58;;;15.20;99.90;;;;;;4948727;29;19911;-75
2022/11/25 12:45:43;;;;;;;13.52;2.28;;;14.90;99.90;;;;;;4949472;29;20040;-75
2022/11/25 12:48:10;;;;;;;3.25;1.60;;;14.70;99.90;;;;;;4949054;29;20058;-75
2022/11/25 12:50:56;;;;;;;5.72;1.50;;;14.50;99.90;;;;;;4949217;29;20078;-75
2022/11/25 12:53:43;;;;;;;6.85;1.65;;;14.50;99.90;;;;;;4948974;29;20044;-75
2022/11/25 12:56:26;;;;;;;3.20;1.40;;;14.50;99.90;;;;;;4948905;29;20032;-75
2022/11/25 12:59:03;;;;;;;4.13;2.25;;;14.60;99.90;;;;;;4949042;29;20497;-75
2022/11/25 13:01:55;;;;;;;6.95;2.88;;;14.30;99.90;;;;;;4949099;29;20036;-75
2022/11/25 13:04:59;;;;;;;4.05;2.17;;;14.40;99.90;;;;;;4948767;29;20031;-75
2022/11/25 13:07:28;;;;;;;7.35;2.38;;;14.30;99.90;;;;;;4948724;29;20028;-74
2022/11/25 13:10:29;;;;;;;3.47;1.83;;;14.30;99.90;;;;;;4948400;29;20485;-75
2022/11/25 13:13:06;;;;;;;13.35;2.17;;;14.20;99.90;;;;;;4919767;29;20087;-75
2022/11/25 13:15:44;;;;;;;6.18;2.05;;;14.10;99.90;;;;;;4948499;29;20028;-75
2022/11/25 13:18:16;;;;;;;7.85;2.40;;;14.00;99.90;;;;;;4931827;29;20031;-75
2022/11/25 13:20:48;;;;;;;11.70;2.08;;;13.90;99.90;;;;;;4931326;29;20507;-75